createdAt,value
2023-05-25T00:00:31.992Z,100539.03
2023-05-25T00:15:33.725Z,100545.22
2023-05-25T00:30:35.466Z,100523.81
2023-05-25T00:45:37.354Z,100519.28
2023-05-25T01:00:42.772Z,100518.28
2023-05-25T01:15:45.834Z,100527.16
2023-05-25T01:30:50.258Z,100523.66
2023-05-25T01:45:55.299Z,100528.00
2023-05-25T02:00:58.717Z,100518.09
2023-05-25T02:16:00.575Z,100525.31
2023-05-25T02:31:02.339Z,100530.47
2023-05-25T02:46:04.084Z,100531.47
2023-05-25T03:01:06.183Z,100538.50
2023-05-25T03:16:08.166Z,100541.19
2023-05-25T03:31:10.020Z,100564.25
2023-05-25T03:46:11.882Z,100565.94
2023-05-25T04:01:13.781Z,100585.50
2023-05-25T04:16:15.669Z,100588.19
2023-05-25T04:31:17.595Z,100600.53
2023-05-25T04:46:19.611Z,100617.28
2023-05-25T05:01:21.524Z,100625.09
2023-05-25T05:16:23.325Z,100634.16
2023-05-25T05:31:25.258Z,100636.66
2023-05-25T05:46:27.462Z,100648.88
2023-05-25T06:01:29.232Z,100667.59
2023-05-25T06:16:31.040Z,100674.59
2023-05-25T06:31:32.823Z,100687.00
2023-05-25T06:46:34.678Z,100701.84
2023-05-25T07:01:36.504Z,100708.72
2023-05-25T07:16:38.471Z,100704.00
2023-05-25T07:31:40.449Z,100718.88
2023-05-25T07:46:43.145Z,100718.53
2023-05-25T08:01:44.914Z,100711.13
2023-05-25T08:16:46.716Z,100733.88
2023-05-25T08:31:48.404Z,100732.66
2023-05-25T08:46:50.317Z,100730.47
2023-05-25T09:01:59.209Z,100730.78
2023-05-25T09:17:04.175Z,100727.56
2023-05-25T09:32:06.350Z,100730.88
2023-05-25T09:47:08.556Z,100736.91
2023-05-25T10:02:10.308Z,100743.72
2023-05-25T10:17:15.593Z,100761.78
2023-05-25T10:32:18.288Z,100769.09
2023-05-25T10:47:21.243Z,100768.59
2023-05-25T11:02:23.344Z,100762.03
2023-05-25T11:17:25.409Z,100765.38
2023-05-25T11:32:27.713Z,100764.16
2023-05-25T11:47:30.212Z,100760.09
2023-05-25T12:02:42.896Z,100755.22
2023-05-25T12:17:45.827Z,100749.47
2023-05-25T12:33:13.934Z,100742.72
2023-05-25T12:48:15.728Z,100737.84
2023-05-25T13:03:18.080Z,100735.63
2023-05-25T13:18:19.766Z,100730.72
2023-05-25T13:33:21.490Z,100729.34
2023-05-25T13:48:23.635Z,100714.53
2023-05-25T14:03:25.493Z,100715.38
2023-05-25T14:18:27.334Z,100696.41
2023-05-25T14:33:29.004Z,100694.00
2023-05-25T14:48:30.724Z,100700.19
2023-05-25T15:03:32.635Z,100697.34
2023-05-25T15:18:34.466Z,100681.88
2023-05-25T15:33:50.197Z,100676.34
2023-05-25T15:48:56.419Z,100668.94
2023-05-25T16:03:58.207Z,100679.88
2023-05-25T16:19:00.016Z,100661.88
2023-05-25T16:34:01.837Z,100659.03
2023-05-25T16:49:03.844Z,100632.84
2023-05-25T17:04:05.725Z,100640.72
2023-05-25T17:19:07.538Z,100628.75
2023-05-25T17:34:09.238Z,100624.06
2023-05-25T17:49:11.038Z,100641.00
2023-05-25T18:04:12.980Z,100641.38
2023-05-25T18:19:14.865Z,100643.22
2023-05-25T18:34:16.615Z,100645.25
2023-05-25T18:49:18.381Z,100643.78
2023-05-25T19:04:20.420Z,100650.53
2023-05-25T19:19:22.196Z,100662.47
2023-05-25T19:34:23.885Z,100671.91
2023-05-25T19:49:25.754Z,100691.69
2023-05-25T20:04:27.534Z,100692.25
2023-05-25T20:19:29.458Z,100697.16
2023-05-25T20:34:31.293Z,100704.91
2023-05-25T20:49:33.018Z,100706.13
2023-05-25T21:04:34.752Z,100710.03
2023-05-25T21:19:36.492Z,100725.63
2023-05-25T21:34:38.209Z,100726.81
2023-05-25T21:49:40.130Z,100752.31
2023-05-25T22:04:41.953Z,100761.56
2023-05-25T22:19:46.808Z,100758.44
2023-05-25T22:34:51.181Z,100757.13
2023-05-25T22:49:52.907Z,100768.22
2023-05-25T23:04:54.630Z,100773.13
2023-05-25T23:19:56.427Z,100758.38
2023-05-25T23:34:58.252Z,100776.47
2023-05-25T23:49:59.923Z,100784.88
